Time;durP1;ratioP1;P1;durP2;ratioP2;P2;SDS_P1;SDS_P2;PMS_P1;PMS_P2;Temp;Humidity;BMP_temperature;BMP_pressure;BME280_temperature;BME280_humidity;BME280_pressure;Samples;Min_cycle;Max_cycle;Signal;HPM_P1;HPM_P2
2023/12/21 00:00:03;;;;;;;3.67;1.05;;;;;;;;;;6214972;23;19996;-85
2023/12/21 00:02:49;;;;;;;1.95;1.30;;;;;;;;;;6193066;23;19999;-84
2023/12/21 00:05:34;;;;;;;3.72;1.27;;;;;;;;;;6214291;23;20343;-86
2023/12/21 00:08:19;;;;;;;2.53;1.00;;;;;;;;;;6214487;23;20023;-83
2023/12/21 00:11:05;;;;;;;2.38;1.00;;;;;;;;;;6214293;23;20000;-84
2023/12/21 00:13:50;;;;;;;1.90;1.10;;;;;;;;;;6214766;23;20051;-85
2023/12/21 00:16:35;;;;;;;3.22;0.95;;;;;;;;;;6214747;23;20000;-85
2023/12/21 00:19:20;;;;;;;2.22;0.85;;;;;;;;;;6213680;23;20007;-87
2023/12/21 00:22:06;;;;;;;1.15;0.80;;;;;;;;;;6214400;23;19997;-86
2023/12/21 00:24:51;;;;;;;2.97;1.00;;;;;;;;;;6215375;23;20007;-86
2023/12/21 00:27:36;;;;;;;2.13;0.90;;;;;;;;;;6214991;23;19996;-85
2023/12/21 00:30:22;;;;;;;1.95;0.73;;;;;;;;;;6195848;23;20494;-86
2023/12/21 00:33:08;;;;;;;0.77;0.70;;;;;;;;;;6238153;23;19996;-86
2023/12/21 00:35:53;;;;;;;0.75;0.65;;;;;;;;;;6215600;23;20004;-87
2023/12/21 00:38:38;;;;;;;1.08;0.70;;;;;;;;;;6216361;23;20000;-85
2023/12/21 00:41:23;;;;;;;0.88;0.60;;;;;;;;;;6216557;23;20075;-87
2023/12/21 00:44:08;;;;;;;0.65;0.65;;;;;;;;;;6216636;23;20058;-85
2023/12/21 00:46:54;;;;;;;0.77;0.77;;;;;;;;;;6216585;23;20004;-86
2023/12/21 00:49:39;;;;;;;1.73;0.80;;;;;;;;;;6216009;23;19992;-86
2023/12/21 00:52:25;;;;;;;2.15;0.63;;;;;;;;;;6216801;23;20401;-86
2023/12/21 00:55:10;;;;;;;0.50;0.50;;;;;;;;;;6236209;23;20363;-86
2023/12/21 00:57:55;;;;;;;1.90;0.77;;;;;;;;;;6215321;23;20131;-86
2023/12/21 01:00:40;;;;;;;1.10;0.57;;;;;;;;;;6216591;23;20000;-86
2023/12/21 01:03:26;;;;;;;1.50;0.70;;;;;;;;;;6217027;23;20032;-86
2023/12/21 01:06:11;;;;;;;1.15;0.80;;;;;;;;;;6216485;23;20078;-88
2023/12/21 01:08:56;;;;;;;0.70;0.70;;;;;;;;;;6212512;23;19992;-85
2023/12/21 01:11:42;;;;;;;1.92;1.25;;;;;;;;;;6214526;23;20023;-87
2023/12/21 01:14:29;;;;;;;0.65;0.60;;;;;;;;;;6216540;23;20000;-84
2023/12/21 01:17:14;;;;;;;0.95;0.60;;;;;;;;;;6216214;23;20046;-84
2023/12/21 01:20:00;;;;;;;1.88;0.60;;;;;;;;;;6216226;23;20007;-86
2023/12/21 01:22:45;;;;;;;1.42;0.70;;;;;;;;;;6215942;23;20000;-85
2023/12/21 01:25:30;;;;;;;1.10;0.70;;;;;;;;;;6216146;23;20103;-87
2023/12/21 01:28:15;;;;;;;1.30;0.93;;;;;;;;;;6215177;23;19996;-85
2023/12/21 01:31:01;;;;;;;2.40;0.82;;;;;;;;;;6195199;23;19992;-86
2023/12/21 01:33:46;;;;;;;0.77;0.60;;;;;;;;;;6217214;23;20027;-86
2023/12/21 01:36:31;;;;;;;2.45;0.80;;;;;;;;;;6215803;23;20300;-87
2023/12/21 01:39:16;;;;;;;1.15;0.70;;;;;;;;;;6215970;23;20004;-86
2023/12/21 01:42:02;;;;;;;1.42;0.80;;;;;;;;;;6216040;23;20004;-86
2023/12/21 01:44:47;;;;;;;1.02;0.80;;;;;;;;;;6214966;23;20003;-86
2023/12/21 01:47:32;;;;;;;0.63;0.63;;;;;;;;;;6215575;23;20425;-85
2023/12/21 01:50:18;;;;;;;1.20;0.60;;;;;;;;;;6216077;23;20019;-85
2023/12/21 01:53:04;;;;;;;1.65;0.60;;;;;;;;;;6216578;23;20306;-87
2023/12/21 01:55:49;;;;;;;1.10;0.73;;;;;;;;;;6216101;23;20371;-87
2023/12/21 01:58:35;;;;;;;0.88;0.52;;;;;;;;;;6215765;23;20000;-86
2023/12/21 02:01:23;;;;;;;0.77;0.60;;;;;;;;;;6214812;23;20032;-86
2023/12/21 02:04:09;;;;;;;0.68;0.60;;;;;;;;;;6216470;23;19992;-85
2023/12/21 02:06:54;;;;;;;1.05;0.70;;;;;;;;;;6215530;23;20429;-87
2023/12/21 02:09:39;;;;;;;1.55;0.70;;;;;;;;;;6215487;22;20000;-87
2023/12/21 02:12:25;;;;;;;0.85;0.50;;;;;;;;;;6215467;23;20028;-86
2023/12/21 02:15:11;;;;;;;0.52;0.50;;;;;;;;;;6215124;23;20079;-87
2023/12/21 02:17:58;;;;;;;0.82;0.50;;;;;;;;;;6212460;23;20436;-87
2023/12/21 02:20:43;;;;;;;0.50;0.50;;;;;;;;;;6217163;23;20962;-86
2023/12/21 02:23:29;;;;;;;0.50;0.50;;;;;;;;;;6216485;23;20000;-84
2023/12/21 02:26:18;;;;;;;0.50;0.50;;;;;;;;;;6216813;23;19996;-85
2023/12/21 02:29:03;;;;;;;0.68;0.60;;;;;;;;;;6215474;23;19996;-84
2023/12/21 02:31:48;;;;;;;0.63;0.50;;;;;;;;;;6215541;23;20004;-85
2023/12/21 02:34:34;;;;;;;1.90;0.60;;;;;;;;;;6214295;23;20008;-84
2023/12/21 02:37:19;;;;;;;0.98;0.50;;;;;;;;;;6215723;23;20000;-84
2023/12/21 02:40:04;;;;;;;2.17;0.65;;;;;;;;;;6216342;23;20050;-85
2023/12/21 02:42:50;;;;;;;0.57;0.50;;;;;;;;;;6215495;23;20003;-86
2023/12/21 02:45:35;;;;;;;2.35;0.70;;;;;;;;;;6215459;23;20079;-86
2023/12/21 02:48:20;;;;;;;0.60;0.50;;;;;;;;;;6215513;23;20357;-85
2023/12/21 02:51:06;;;;;;;0.85;0.63;;;;;;;;;;6215515;23;19996;-86
2023/12/21 02:53:51;;;;;;;0.60;0.40;;;;;;;;;;6214367;23;20122;-85
2023/12/21 02:56:36;;;;;;;0.40;0.40;;;;;;;;;;6216157;23;20000;-85
2023/12/21 02:59:22;;;;;;;0.82;0.60;;;;;;;;;;6215849;23;20000;-85
2023/12/21 03:02:07;;;;;;;0.40;0.40;;;;;;;;;;6215867;23;20337;-86
2023/12/21 03:04:52;;;;;;;0.40;0.40;;;;;;;;;;6219234;23;20031;-86
2023/12/21 03:07:38;;;;;;;0.40;0.40;;;;;;;;;;6218730;23;19996;-86
2023/12/21 03:10:23;;;;;;;1.05;0.68;;;;;;;;;;6218936;23;19992;-86
2023/12/21 03:13:08;;;;;;;0.50;0.50;;;;;;;;;;6217915;23;20016;-86
2023/12/21 03:15:54;;;;;;;0.45;0.40;;;;;;;;;;6218521;23;20049;-86
2023/12/21 03:18:39;;;;;;;0.52;0.35;;;;;;;;;;6219536;23;20004;-86
2023/12/21 03:21:24;;;;;;;0.55;0.40;;;;;;;;;;6218609;23;19996;-86
2023/12/21 03:24:09;;;;;;;1.08;0.50;;;;;;;;;;6218913;23;20023;-87
2023/12/21 03:26:55;;;;;;;0.40;0.40;;;;;;;;;;6219114;23;19992;-86
2023/12/21 03:29:40;;;;;;;0.60;0.60;;;;;;;;;;6218188;23;19993;-86
2023/12/21 03:32:25;;;;;;;0.50;0.50;;;;;;;;;;6218505;23;20003;-86
2023/12/21 03:35:11;;;;;;;0.40;0.40;;;;;;;;;;6219304;23;20512;-85
2023/12/21 03:37:56;;;;;;;0.50;0.50;;;;;;;;;;6218960;23;20062;-85
2023/12/21 03:40:41;;;;;;;0.50;0.50;;;;;;;;;;6217714;23;20004;-85
2023/12/21 03:43:26;;;;;;;1.13;0.60;;;;;;;;;;6217702;23;20054;-84
2023/12/21 03:46:12;;;;;;;0.52;0.50;;;;;;;;;;6216395;23;20000;-84
2023/12/21 03:48:57;;;;;;;0.50;0.50;;;;;;;;;;6219021;23;20000;-84
2023/12/21 03:51:43;;;;;;;0.47;0.45;;;;;;;;;;6217874;23;19992;-84
2023/12/21 03:54:28;;;;;;;2.20;0.50;;;;;;;;;;6218254;23;19996;-85
2023/12/21 03:57:13;;;;;;;1.33;0.50;;;;;;;;;;6218596;23;20217;-85
2023/12/21 04:00:00;;;;;;;0.50;0.50;;;;;;;;;;6217841;23;20424;-87
2023/12/21 04:02:46;;;;;;;0.47;0.47;;;;;;;;;;6216184;23;20004;-86
2023/12/21 04:05:31;;;;;;;0.47;0.40;;;;;;;;;;6214849;23;20364;-85
2023/12/21 04:08:21;;;;;;;0.40;0.40;;;;;;;;;;6214458;23;19996;-85
2023/12/21 04:11:06;;;;;;;1.23;0.40;;;;;;;;;;6214109;23;20026;-84
2023/12/21 04:13:51;;;;;;;0.40;0.40;;;;;;;;;;6213253;23;20310;-86
2023/12/21 04:16:39;;;;;;;0.50;0.50;;;;;;;;;;6214688;23;20080;-84
2023/12/21 04:19:24;;;;;;;0.45;0.45;;;;;;;;;;6215337;23;20035;-86
2023/12/21 04:22:10;;;;;;;1.38;0.70;;;;;;;;;;6213783;23;20023;-86
2023/12/21 04:24:55;;;;;;;0.50;0.50;;;;;;;;;;6214319;23;20083;-86
2023/12/21 04:27:40;;;;;;;0.70;0.55;;;;;;;;;;6214663;23;20035;-86
2023/12/21 04:30:25;;;;;;;0.70;0.60;;;;;;;;;;6214754;23;20024;-86
2023/12/21 04:33:11;;;;;;;1.13;0.55;;;;;;;;;;6214588;23;20007;-86
2023/12/21 04:35:57;;;;;;;2.00;0.70;;;;;;;;;;6214781;23;20008;-87
2023/12/21 04:38:42;;;;;;;0.40;0.40;;;;;;;;;;6214420;23;20007;-87
2023/12/21 04:41:27;;;;;;;0.40;0.40;;;;;;;;;;6215289;23;20182;-86
2023/12/21 04:44:13;;;;;;;0.85;0.60;;;;;;;;;;6212329;23;20444;-85
2023/12/21 04:46:58;;;;;;;0.40;0.40;;;;;;;;;;6210324;23;20329;-86
2023/12/21 04:49:44;;;;;;;1.10;0.73;;;;;;;;;;6213252;23;20004;-84
2023/12/21 04:52:29;;;;;;;1.40;0.50;;;;;;;;;;6215277;23;20251;-84
2023/12/21 04:55:15;;;;;;;0.50;0.50;;;;;;;;;;6213932;23;20004;-84
2023/12/21 04:58:00;;;;;;;0.43;0.43;;;;;;;;;;6214720;23;20004;-87
2023/12/21 05:00:50;;;;;;;0.57;0.50;;;;;;;;;;6214367;23;20000;-84
2023/12/21 05:03:35;;;;;;;1.10;0.52;;;;;;;;;;6212371;23;20368;-86
2023/12/21 05:06:21;;;;;;;0.40;0.40;;;;;;;;;;6215161;23;19993;-85
2023/12/21 05:09:06;;;;;;;0.50;0.40;;;;;;;;;;6214614;23;20004;-83
2023/12/21 05:11:52;;;;;;;0.60;0.60;;;;;;;;;;6211768;23;20012;-84
2023/12/21 05:14:38;;;;;;;1.58;0.57;;;;;;;;;;6215146;23;20445;-84
2023/12/21 05:17:23;;;;;;;2.75;0.60;;;;;;;;;;6217117;23;20000;-85
2023/12/21 05:20:09;;;;;;;0.50;0.50;;;;;;;;;;6214597;23;20356;-84
2023/12/21 05:22:54;;;;;;;0.60;0.60;;;;;;;;;;6215689;23;20091;-85
2023/12/21 05:25:40;;;;;;;0.75;0.75;;;;;;;;;;6214289;23;20004;-85
2023/12/21 05:28:26;;;;;;;0.50;0.50;;;;;;;;;;6215599;23;20000;-85
2023/12/21 05:31:11;;;;;;;1.23;0.50;;;;;;;;;;6216397;23;20004;-86
2023/12/21 05:33:57;;;;;;;1.20;0.50;;;;;;;;;;6216472;23;20332;-85
2023/12/21 05:36:42;;;;;;;1.15;0.55;;;;;;;;;;6216264;23;19996;-87
2023/12/21 05:39:27;;;;;;;0.50;0.50;;;;;;;;;;6215881;23;20091;-86
2023/12/21 05:42:12;;;;;;;0.60;0.52;;;;;;;;;;6237341;23;20320;-85
2023/12/21 05:44:58;;;;;;;0.55;0.55;;;;;;;;;;6214364;23;20038;-87
2023/12/21 05:47:43;;;;;;;1.85;0.57;;;;;;;;;;6216619;23;19996;-86
2023/12/21 05:50:28;;;;;;;1.17;0.65;;;;;;;;;;6195741;23;20000;-87
2023/12/21 05:53:14;;;;;;;1.35;0.70;;;;;;;;;;6215355;23;20433;-87
2023/12/21 05:55:59;;;;;;;0.68;0.60;;;;;;;;;;6216161;23;20015;-86
2023/12/21 05:58:44;;;;;;;0.60;0.40;;;;;;;;;;6215864;23;20003;-86
2023/12/21 06:01:30;;;;;;;0.60;0.60;;;;;;;;;;6216019;23;20447;-86
2023/12/21 06:04:15;;;;;;;0.50;0.50;;;;;;;;;;6215344;23;20479;-86
2023/12/21 06:07:00;;;;;;;0.60;0.60;;;;;;;;;;6216599;23;20001;-85
2023/12/21 06:09:46;;;;;;;0.50;0.50;;;;;;;;;;6194988;22;19996;-84
2023/12/21 06:12:31;;;;;;;0.95;0.65;;;;;;;;;;6214392;23;20091;-84
2023/12/21 06:15:17;;;;;;;0.50;0.50;;;;;;;;;;6214326;23;20429;-80
2023/12/21 06:18:02;;;;;;;0.50;0.50;;;;;;;;;;6215289;23;20080;-80
2023/12/21 06:20:47;;;;;;;1.15;0.80;;;;;;;;;;6193796;23;20008;-80
2023/12/21 06:23:32;;;;;;;0.70;0.70;;;;;;;;;;6212404;23;20534;-85
2023/12/21 06:26:18;;;;;;;0.50;0.50;;;;;;;;;;6215412;23;20914;-85
2023/12/21 06:29:03;;;;;;;0.40;0.40;;;;;;;;;;6214638;23;20000;-88
2023/12/21 06:31:48;;;;;;;1.08;0.60;;;;;;;;;;6215906;23;20019;-85
2023/12/21 06:34:33;;;;;;;0.80;0.80;;;;;;;;;;6216252;23;20050;-85
2023/12/21 06:37:19;;;;;;;0.60;0.60;;;;;;;;;;6215229;23;19992;-84
2023/12/21 06:40:04;;;;;;;0.50;0.50;;;;;;;;;;6215444;23;20030;-85
2023/12/21 06:42:50;;;;;;;0.50;0.50;;;;;;;;;;6215035;23;20436;-85
2023/12/21 06:45:35;;;;;;;1.65;0.63;;;;;;;;;;6215242;23;20075;-85
2023/12/21 06:48:20;;;;;;;0.82;0.60;;;;;;;;;;6214262;23;20204;-84
2023/12/21 06:51:05;;;;;;;0.93;0.60;;;;;;;;;;6215490;23;20035;-86
2023/12/21 06:53:51;;;;;;;0.63;0.60;;;;;;;;;;6215026;23;20015;-87
2023/12/21 06:56:36;;;;;;;1.23;0.93;;;;;;;;;;6215193;23;20492;-88
2023/12/21 06:59:21;;;;;;;0.50;0.50;;;;;;;;;;6214680;23;20328;-87
2023/12/21 07:02:07;;;;;;;0.98;0.88;;;;;;;;;;6214730;23;20004;-86
2023/12/21 07:04:54;;;;;;;1.27;0.50;;;;;;;;;;6193777;23;20000;-86
2023/12/21 07:07:39;;;;;;;0.50;0.50;;;;;;;;;;6209264;23;19995;-79
2023/12/21 07:10:24;;;;;;;0.60;0.52;;;;;;;;;;6215495;23;19996;-87
2023/12/21 07:13:10;;;;;;;1.05;0.60;;;;;;;;;;6215972;23;20035;-87
2023/12/21 07:15:55;;;;;;;0.95;0.60;;;;;;;;;;6209706;23;20006;-89
2023/12/21 07:18:40;;;;;;;1.10;0.50;;;;;;;;;;6237219;22;19989;-89
2023/12/21 07:21:25;;;;;;;1.52;0.47;;;;;;;;;;6247272;22;19996;-87
2023/12/21 07:24:12;;;;;;;0.73;0.73;;;;;;;;;;6246329;22;20012;-88
2023/12/21 07:26:57;;;;;;;0.60;0.50;;;;;;;;;;6245342;22;20171;-88
2023/12/21 07:29:44;;;;;;;0.57;0.50;;;;;;;;;;6244466;22;19988;-88
2023/12/21 07:32:30;;;;;;;0.60;0.50;;;;;;;;;;6223409;22;20031;-86
2023/12/21 07:35:15;;;;;;;0.50;0.50;;;;;;;;;;6243845;22;19996;-87
2023/12/21 07:38:00;;;;;;;0.93;0.60;;;;;;;;;;6241738;23;20177;-85
2023/12/21 07:40:45;;;;;;;0.60;0.57;;;;;;;;;;6216019;23;20007;-83
2023/12/21 07:43:31;;;;;;;0.65;0.50;;;;;;;;;;6214650;23;20051;-83
2023/12/21 07:46:16;;;;;;;0.40;0.40;;;;;;;;;;6213433;23;19996;-83
2023/12/21 07:49:01;;;;;;;0.40;0.40;;;;;;;;;;6214380;23;19996;-81
2023/12/21 07:51:46;;;;;;;0.65;0.50;;;;;;;;;;6215020;23;20000;-81
2023/12/21 07:54:31;;;;;;;0.68;0.55;;;;;;;;;;6235260;23;20004;-83
2023/12/21 07:57:17;;;;;;;0.80;0.60;;;;;;;;;;6215382;23;20058;-82
2023/12/21 08:00:03;;;;;;;0.40;0.40;;;;;;;;;;6212027;23;20071;-82
2023/12/21 08:02:48;;;;;;;0.52;0.52;;;;;;;;;;6215133;23;20004;-81
2023/12/21 08:05:33;;;;;;;1.35;0.65;;;;;;;;;;6193028;23;20482;-81
2023/12/21 08:08:19;;;;;;;1.38;0.60;;;;;;;;;;6213740;23;20425;-82
2023/12/21 08:11:04;;;;;;;1.02;0.70;;;;;;;;;;6213942;23;20015;-82
2023/12/21 08:13:51;;;;;;;0.50;0.50;;;;;;;;;;6213027;23;20025;-80
2023/12/21 08:16:36;;;;;;;1.00;0.70;;;;;;;;;;6213325;23;19996;-83
2023/12/21 08:19:22;;;;;;;0.88;0.70;;;;;;;;;;6215366;23;20488;-83
2023/12/21 08:22:09;;;;;;;1.27;0.70;;;;;;;;;;6216158;23;20325;-84
2023/12/21 08:24:56;;;;;;;0.60;0.60;;;;;;;;;;6213713;23;20000;-81
2023/12/21 08:27:41;;;;;;;0.82;0.63;;;;;;;;;;6213285;23;20008;-83
2023/12/21 08:30:26;;;;;;;0.60;0.60;;;;;;;;;;6234943;23;20443;-81
2023/12/21 08:33:12;;;;;;;0.80;0.60;;;;;;;;;;6214599;23;20328;-80
2023/12/21 08:35:57;;;;;;;0.50;0.50;;;;;;;;;;6214577;23;20027;-81
2023/12/21 08:38:42;;;;;;;0.75;0.60;;;;;;;;;;6214273;23;20050;-82
2023/12/21 08:41:27;;;;;;;0.90;0.60;;;;;;;;;;6213698;23;20384;-80
2023/12/21 08:44:13;;;;;;;1.15;0.60;;;;;;;;;;6214562;23;20178;-84
2023/12/21 08:46:58;;;;;;;1.02;0.60;;;;;;;;;;6190429;23;20011;-84
2023/12/21 08:49:43;;;;;;;0.70;0.50;;;;;;;;;;6214316;23;20003;-82
2023/12/21 08:52:28;;;;;;;0.55;0.55;;;;;;;;;;6237844;23;20012;-83
2023/12/21 08:55:13;;;;;;;2.58;0.75;;;;;;;;;;6215854;23;20086;-84
2023/12/21 08:57:59;;;;;;;0.50;0.50;;;;;;;;;;6214211;23;20209;-84
2023/12/21 09:00:44;;;;;;;1.85;0.50;;;;;;;;;;6229632;23;20004;-85
2023/12/21 09:03:29;;;;;;;0.60;0.60;;;;;;;;;;6216123;23;20451;-84
2023/12/21 09:06:14;;;;;;;0.60;0.60;;;;;;;;;;6191630;23;20058;-84
2023/12/21 09:09:01;;;;;;;1.17;0.68;;;;;;;;;;6212201;23;20391;-85
2023/12/21 09:11:48;;;;;;;0.40;0.40;;;;;;;;;;6212754;23;20020;-85
2023/12/21 09:14:33;;;;;;;1.50;0.82;;;;;;;;;;6195212;23;20003;-85
2023/12/21 09:17:21;;;;;;;1.02;0.70;;;;;;;;;;6157985;23;20741;-85
2023/12/21 09:20:10;;;;;;;1.10;0.57;;;;;;;;;;6177675;23;20370;-86
2023/12/21 09:22:55;;;;;;;1.37;0.70;;;;;;;;;;6175891;23;20455;-84
2023/12/21 09:25:41;;;;;;;0.70;0.70;;;;;;;;;;6203463;23;20223;-87
2023/12/21 09:28:26;;;;;;;0.88;0.60;;;;;;;;;;6179133;23;20023;-84
2023/12/21 09:31:11;;;;;;;0.50;0.50;;;;;;;;;;6191251;23;20035;-79
2023/12/21 09:33:56;;;;;;;1.00;0.57;;;;;;;;;;6155622;23;20000;-79
2023/12/21 09:36:42;;;;;;;0.82;0.60;;;;;;;;;;6175921;23;20000;-79
2023/12/21 09:39:29;;;;;;;1.80;0.80;;;;;;;;;;6213983;23;20008;-79
2023/12/21 09:42:15;;;;;;;0.65;0.65;;;;;;;;;;6213600;23;20075;-78
2023/12/21 09:45:01;;;;;;;1.45;0.68;;;;;;;;;;6212334;23;20000;-78
2023/12/21 09:47:46;;;;;;;0.57;0.55;;;;;;;;;;6235174;23;19992;-78
2023/12/21 09:50:32;;;;;;;0.60;0.50;;;;;;;;;;6233785;23;20004;-77
2023/12/21 09:53:18;;;;;;;0.65;0.50;;;;;;;;;;6235031;23;20078;-79
2023/12/21 09:56:04;;;;;;;0.50;0.50;;;;;;;;;;6214131;23;20356;-77
2023/12/21 09:58:49;;;;;;;0.50;0.50;;;;;;;;;;6234556;23;20054;-80
2023/12/21 10:01:34;;;;;;;1.02;0.55;;;;;;;;;;6213330;23;20054;-78
2023/12/21 10:04:20;;;;;;;0.43;0.43;;;;;;;;;;6212866;23;20082;-79
2023/12/21 10:07:05;;;;;;;0.85;0.70;;;;;;;;;;6214870;23;19993;-79
2023/12/21 10:09:50;;;;;;;0.75;0.75;;;;;;;;;;6192580;22;20398;-79
2023/12/21 10:12:40;;;;;;;1.05;0.50;;;;;;;;;;6212444;23;20023;-79
2023/12/21 10:15:25;;;;;;;0.65;0.65;;;;;;;;;;6212236;23;20074;-80
2023/12/21 10:18:10;;;;;;;0.63;0.50;;;;;;;;;;6213524;23;20004;-81
2023/12/21 10:20:56;;;;;;;0.85;0.60;;;;;;;;;;6213801;23;20087;-81
2023/12/21 10:23:42;;;;;;;0.47;0.40;;;;;;;;;;6214030;23;20443;-80
2023/12/21 10:26:28;;;;;;;0.43;0.43;;;;;;;;;;6213075;23;20011;-80
2023/12/21 10:29:17;;;;;;;0.45;0.45;;;;;;;;;;6213241;23;20007;-78
2023/12/21 10:32:03;;;;;;;4.05;0.80;;;;;;;;;;6212017;23;20000;-77
2023/12/21 10:34:48;;;;;;;1.45;0.63;;;;;;;;;;6213647;23;19996;-78
2023/12/21 10:37:36;;;;;;;0.55;0.50;;;;;;;;;;6234467;23;19996;-77
2023/12/21 10:40:22;;;;;;;1.02;0.70;;;;;;;;;;6213328;23;20457;-77
2023/12/21 10:43:07;;;;;;;0.98;0.60;;;;;;;;;;6212437;23;20433;-77
2023/12/21 10:45:53;;;;;;;0.93;0.60;;;;;;;;;;6212598;23;20018;-76
2023/12/21 10:48:38;;;;;;;1.13;0.60;;;;;;;;;;6204713;23;20512;-78
2023/12/21 10:51:24;;;;;;;0.55;0.55;;;;;;;;;;6213530;23;20329;-79
2023/12/21 10:54:10;;;;;;;0.57;0.57;;;;;;;;;;6213785;23;20112;-84
2023/12/21 10:56:56;;;;;;;0.52;0.52;;;;;;;;;;6214361;23;20000;-85
2023/12/21 10:59:43;;;;;;;1.35;0.57;;;;;;;;;;6214330;23;20008;-84
2023/12/21 11:02:29;;;;;;;0.75;0.60;;;;;;;;;;6207520;23;20397;-81
2023/12/21 11:05:22;;;;;;;0.68;0.65;;;;;;;;;;6213628;23;19996;-76
2023/12/21 11:08:08;;;;;;;0.73;0.73;;;;;;;;;;6213106;23;19996;-76
2023/12/21 11:10:53;;;;;;;0.50;0.50;;;;;;;;;;6181888;23;20004;-78
2023/12/21 11:13:44;;;;;;;0.68;0.60;;;;;;;;;;6199194;23;20409;-78
2023/12/21 11:16:34;;;;;;;0.45;0.45;;;;;;;;;;6213186;23;20050;-79
2023/12/21 11:19:26;;;;;;;0.50;0.50;;;;;;;;;;6234059;23;20046;-79
2023/12/21 11:22:12;;;;;;;0.63;0.63;;;;;;;;;;6213417;23;20011;-78
2023/12/21 11:25:01;;;;;;;1.02;0.70;;;;;;;;;;6212733;23;19992;-78
2023/12/21 11:27:47;;;;;;;0.50;0.50;;;;;;;;;;6213402;23;19997;-78
2023/12/21 11:30:32;;;;;;;0.65;0.50;;;;;;;;;;6191956;23;20004;-77
2023/12/21 11:33:26;;;;;;;0.60;0.60;;;;;;;;;;6211891;23;20036;-78
2023/12/21 11:36:21;;;;;;;0.50;0.50;;;;;;;;;;6213549;23;20041;-78
2023/12/21 11:39:11;;;;;;;0.70;0.60;;;;;;;;;;6214496;23;20004;-78
2023/12/21 11:42:00;;;;;;;0.60;0.60;;;;;;;;;;6213179;23;20027;-78
2023/12/21 11:44:53;;;;;;;0.63;0.50;;;;;;;;;;6207714;23;20100;-76
2023/12/21 11:47:42;;;;;;;1.35;0.60;;;;;;;;;;6213916;23;20318;-77
2023/12/21 11:50:33;;;;;;;0.80;0.80;;;;;;;;;;6213628;23;20007;-77
2023/12/21 11:53:25;;;;;;;0.40;0.40;;;;;;;;;;6213067;23;20004;-77
2023/12/21 11:56:16;;;;;;;0.68;0.68;;;;;;;;;;6213539;23;20000;-78
2023/12/21 11:59:03;;;;;;;0.47;0.47;;;;;;;;;;6213098;23;20552;-77
2023/12/21 12:01:49;;;;;;;0.47;0.47;;;;;;;;;;6211910;23;20075;-77
2023/12/21 12:04:34;;;;;;;0.60;0.50;;;;;;;;;;6213015;23;20719;-76
2023/12/21 12:07:21;;;;;;;0.40;0.40;;;;;;;;;;6213235;23;20373;-79
2023/12/21 12:10:06;;;;;;;0.70;0.70;;;;;;;;;;6233140;22;20055;-79
2023/12/21 12:12:54;;;;;;;0.70;0.70;;;;;;;;;;6234444;23;20422;-79
2023/12/21 12:15:41;;;;;;;0.82;0.63;;;;;;;;;;6211336;23;20004;-80
2023/12/21 12:18:26;;;;;;;0.95;0.68;;;;;;;;;;6212732;23;20007;-75
2023/12/21 12:21:11;;;;;;;1.08;0.60;;;;;;;;;;6212984;23;20008;-77
2023/12/21 12:23:57;;;;;;;3.60;0.80;;;;;;;;;;6212909;23;19996;-80
2023/12/21 12:26:42;;;;;;;0.65;0.65;;;;;;;;;;6214003;23;20000;-79
2023/12/21 12:29:28;;;;;;;0.60;0.57;;;;;;;;;;6214308;23;20000;-79
2023/12/21 12:32:14;;;;;;;0.73;0.50;;;;;;;;;;6214105;23;20071;-81
2023/12/21 12:35:00;;;;;;;0.40;0.40;;;;;;;;;;6214928;23;20008;-88
2023/12/21 12:37:48;;;;;;;1.38;0.73;;;;;;;;;;6215571;23;20000;-84
2023/12/21 12:40:34;;;;;;;2.60;1.02;;;;;;;;;;6215544;23;20030;-84
2023/12/21 12:43:19;;;;;;;2.35;0.70;;;;;;;;;;6209494;23;20004;-82
2023/12/21 12:46:05;;;;;;;0.50;0.50;;;;;;;;;;6210154;23;19993;-83
2023/12/21 12:48:50;;;;;;;0.73;0.70;;;;;;;;;;6194294;23;19992;-82
2023/12/21 12:51:36;;;;;;;1.30;0.60;;;;;;;;;;6236569;23;20011;-83
2023/12/21 12:54:21;;;;;;;0.50;0.50;;;;;;;;;;6215721;23;20007;-82
2023/12/21 12:57:07;;;;;;;0.40;0.40;;;;;;;;;;6214530;23;20000;-82
2023/12/21 12:59:56;;;;;;;0.40;0.40;;;;;;;;;;6214941;23;20011;-81
2023/12/21 13:02:41;;;;;;;1.30;0.47;;;;;;;;;;6236377;23;20352;-81
2023/12/21 13:05:27;;;;;;;0.95;0.50;;;;;;;;;;6211137;23;20000;-84
2023/12/21 13:08:12;;;;;;;0.50;0.50;;;;;;;;;;6236924;23;20000;-83
2023/12/21 13:10:57;;;;;;;1.25;0.60;;;;;;;;;;6211187;23;19996;-82
2023/12/21 13:13:42;;;;;;;0.65;0.60;;;;;;;;;;6215652;23;20118;-83
2023/12/21 13:16:28;;;;;;;1.08;0.70;;;;;;;;;;6215646;23;20094;-83
2023/12/21 13:19:13;;;;;;;0.52;0.50;;;;;;;;;;6215191;23;19997;-83
2023/12/21 13:21:58;;;;;;;0.85;0.60;;;;;;;;;;6205458;23;20011;-80
2023/12/21 13:24:43;;;;;;;1.38;0.75;;;;;;;;;;6214465;23;20000;-81
2023/12/21 13:27:29;;;;;;;0.50;0.50;;;;;;;;;;6214541;23;20024;-82
2023/12/21 13:30:14;;;;;;;0.52;0.50;;;;;;;;;;6235520;23;20087;-82
2023/12/21 13:32:59;;;;;;;0.47;0.47;;;;;;;;;;6215790;23;20099;-82
2023/12/21 13:35:45;;;;;;;1.85;0.60;;;;;;;;;;6214162;23;20004;-82
2023/12/21 13:38:30;;;;;;;2.33;0.90;;;;;;;;;;6214639;23;20000;-83
2023/12/21 13:41:15;;;;;;;1.60;0.70;;;;;;;;;;6214819;23;20058;-82
2023/12/21 13:44:01;;;;;;;1.02;0.50;;;;;;;;;;6213926;23;19999;-82
2023/12/21 13:46:46;;;;;;;0.57;0.57;;;;;;;;;;6214476;23;20019;-83
2023/12/21 13:49:32;;;;;;;1.85;0.43;;;;;;;;;;6214198;23;20083;-82
2023/12/21 13:52:17;;;;;;;0.57;0.50;;;;;;;;;;6214334;23;20182;-82
2023/12/21 13:55:02;;;;;;;2.30;0.70;;;;;;;;;;6214656;23;20425;-83
2023/12/21 13:57:49;;;;;;;1.45;0.50;;;;;;;;;;6213490;23;20015;-82
2023/12/21 14:00:35;;;;;;;0.57;0.50;;;;;;;;;;6213594;23;20000;-84
2023/12/21 14:03:20;;;;;;;1.70;0.50;;;;;;;;;;6194095;23;20011;-85
2023/12/21 14:06:05;;;;;;;1.02;0.60;;;;;;;;;;6213930;23;20031;-84
2023/12/21 14:08:50;;;;;;;0.50;0.50;;;;;;;;;;6235290;23;20032;-80
2023/12/21 14:11:36;;;;;;;0.90;0.55;;;;;;;;;;6214119;23;20054;-83
2023/12/21 14:14:21;;;;;;;0.50;0.50;;;;;;;;;;6213617;23;20515;-83
2023/12/21 14:17:06;;;;;;;0.55;0.50;;;;;;;;;;6235431;23;20330;-80
2023/12/21 14:19:52;;;;;;;0.55;0.47;;;;;;;;;;6212660;23;20011;-81
2023/12/21 14:22:37;;;;;;;1.80;0.50;;;;;;;;;;6235003;23;20035;-83
2023/12/21 14:25:23;;;;;;;0.60;0.60;;;;;;;;;;6214034;23;20089;-82
2023/12/21 14:28:08;;;;;;;0.50;0.50;;;;;;;;;;6234815;23;20031;-83
2023/12/21 14:30:53;;;;;;;0.73;0.50;;;;;;;;;;6212629;23;19996;-86
2023/12/21 14:33:39;;;;;;;2.60;0.70;;;;;;;;;;6213956;23;20050;-85
2023/12/21 14:36:24;;;;;;;0.60;0.60;;;;;;;;;;6214840;23;19996;-86
2023/12/21 14:39:11;;;;;;;0.50;0.50;;;;;;;;;;6213935;23;20000;-86
2023/12/21 14:41:56;;;;;;;0.43;0.43;;;;;;;;;;6214697;23;20031;-85
2023/12/21 14:44:41;;;;;;;0.55;0.50;;;;;;;;;;6213719;23;19992;-83
2023/12/21 14:47:29;;;;;;;1.60;0.80;;;;;;;;;;6212856;23;19996;-85
2023/12/21 14:50:15;;;;;;;0.88;0.68;;;;;;;;;;6204685;23;20058;-82
2023/12/21 14:53:00;;;;;;;2.75;1.17;;;;;;;;;;6213713;23;20095;-84
2023/12/21 14:55:47;;;;;;;3.50;0.70;;;;;;;;;;6198319;23;20042;-87
2023/12/21 14:58:32;;;;;;;1.48;0.77;;;;;;;;;;6217828;23;20019;-88
2023/12/21 15:01:17;;;;;;;1.23;0.70;;;;;;;;;;6220021;23;20075;-88
2023/12/21 15:04:03;;;;;;;1.20;0.70;;;;;;;;;;6222946;23;20046;-90
2023/12/21 15:06:50;;;;;;;1.30;0.73;;;;;;;;;;6216727;23;20003;-88
2023/12/21 15:09:35;;;;;;;2.15;0.50;;;;;;;;;;6214636;22;20006;-83
2023/12/21 15:12:21;;;;;;;1.85;0.70;;;;;;;;;;6221683;23;20015;-85
2023/12/21 15:15:06;;;;;;;0.60;0.60;;;;;;;;;;6245673;23;20016;-88
2023/12/21 15:17:52;;;;;;;0.73;0.52;;;;;;;;;;6265648;22;20020;-84
2023/12/21 15:20:37;;;;;;;1.15;0.65;;;;;;;;;;6245151;22;20011;-88
2023/12/21 15:23:22;;;;;;;0.85;0.60;;;;;;;;;;6245895;22;20027;-87
2023/12/21 15:26:09;;;;;;;0.95;0.60;;;;;;;;;;6245955;23;20031;-88
2023/12/21 15:28:55;;;;;;;1.70;0.63;;;;;;;;;;6216921;23;20050;-87
2023/12/21 15:31:41;;;;;;;1.85;0.60;;;;;;;;;;6216501;23;20086;-87
2023/12/21 15:34:29;;;;;;;0.60;0.60;;;;;;;;;;6196593;23;20004;-87
2023/12/21 15:37:14;;;;;;;0.52;0.50;;;;;;;;;;6216555;23;20075;-86
2023/12/21 15:39:59;;;;;;;0.82;0.70;;;;;;;;;;6214151;23;20094;-86
2023/12/21 15:42:44;;;;;;;1.83;1.15;;;;;;;;;;6234695;23;20055;-86
2023/12/21 15:45:30;;;;;;;0.95;0.50;;;;;;;;;;6240357;23;20007;-92
2023/12/21 15:48:16;;;;;;;1.67;0.52;;;;;;;;;;6216852;23;20000;-87
2023/12/21 15:51:01;;;;;;;0.68;0.50;;;;;;;;;;6215755;23;20079;-88
2023/12/21 15:53:46;;;;;;;0.65;0.50;;;;;;;;;;6216355;23;20083;-82
2023/12/21 15:56:31;;;;;;;0.50;0.50;;;;;;;;;;6212703;23;19999;-88
2023/12/21 15:59:16;;;;;;;0.50;0.50;;;;;;;;;;6217605;23;20058;-90
2023/12/21 16:02:04;;;;;;;0.50;0.50;;;;;;;;;;6216389;23;20007;-85
2023/12/21 16:04:49;;;;;;;0.40;0.40;;;;;;;;;;6214237;23;19998;-86
2023/12/21 16:07:35;;;;;;;1.35;0.77;;;;;;;;;;6216089;23;20429;-85
2023/12/21 16:10:20;;;;;;;1.08;0.50;;;;;;;;;;6215371;23;20445;-85
2023/12/21 16:13:06;;;;;;;0.60;0.60;;;;;;;;;;6215708;23;20058;-85
2023/12/21 16:15:51;;;;;;;1.05;0.70;;;;;;;;;;6211520;23;20015;-83
2023/12/21 16:18:36;;;;;;;1.23;0.60;;;;;;;;;;6192678;23;20033;-82
2023/12/21 16:21:22;;;;;;;3.15;0.90;;;;;;;;;;6215454;23;20000;-83
2023/12/21 16:24:09;;;;;;;0.93;0.60;;;;;;;;;;6224215;23;20443;-89
2023/12/21 16:26:55;;;;;;;0.70;0.60;;;;;;;;;;6220622;23;20004;-87
2023/12/21 16:29:40;;;;;;;3.35;0.73;;;;;;;;;;6216739;23;20018;-86
2023/12/21 16:32:25;;;;;;;2.67;0.93;;;;;;;;;;6203527;23;20008;-87